Search for airport 
image banner adimage banner adimage banner ad
image banner ad

5PS0 - Beau Street

Located in Washington, United States

ICAO - 5PS0, IATA -

Data provided by Airmate  

General information

Coordinates: N40°10'45" W80°13'2"
Elevation is 1243 feet MSL.
Magnetic variation is -07° East
View others Airports in Pennsylvania

Operational data

Special qualification required
Current time UTC:
Current local time:
Weather at : KAFJ - Washington County ( 8 km )
METAR: KAFJ 071317Z AUTO 36006KT 9SM -RA BKN009 OVC036 06/06 A2992 RMK AO2 CIG 006V012 P0001
View NOTAMs / SUP AIP / TFR affecting this airport [VIEW]
Communications frequencies: [VIEW]

Runways:

Airport contact information

Address: Washington United States

Satellite view of 5PS0